Time;durP1;ratioP1;P1;durP2;ratioP2;P2;SDS_P1;SDS_P2;PMS_P1;PMS_P2;Temp;Humidity;BMP_temperature;BMP_pressure;BME280_temperature;BME280_humidity;BME280_pressure;Samples;Min_cycle;Max_cycle;Signal;HPM_P1;HPM_P2
2023/04/23 00:02:16;;;;;;;58.92;36.63;;;8.90;99.90;;;;;;5017009;28;20060;-86
2023/04/23 00:04:51;;;;;;;55.50;35.45;;;8.80;99.90;;;;;;5033882;28;20033;-86
2023/04/23 00:07:19;;;;;;;55.90;34.85;;;8.80;99.90;;;;;;5017815;28;20044;-85
2023/04/23 00:09:46;;;;;;;57.08;36.80;;;8.80;99.90;;;;;;5017560;28;20026;-85
2023/04/23 00:12:14;;;;;;;58.30;36.72;;;8.80;99.90;;;;;;5018033;28;20116;-85
2023/04/23 00:14:41;;;;;;;53.10;34.33;;;8.80;99.90;;;;;;5019077;28;20075;-84
2023/04/23 00:17:08;;;;;;;57.25;35.35;;;8.80;99.90;;;;;;5017552;28;20492;-85
2023/04/23 00:19:33;;;;;;;55.13;34.13;;;8.80;99.90;;;;;;5015967;28;20390;-85
2023/04/23 00:21:59;;;;;;;52.25;32.05;;;8.80;99.90;;;;;;5018478;28;20037;-85
2023/04/23 00:24:24;;;;;;;52.15;32.33;;;8.80;99.90;;;;;;5018404;28;20045;-85
2023/04/23 00:26:52;;;;;;;49.78;32.60;;;8.80;99.90;;;;;;5020131;28;20040;-85
2023/04/23 00:29:18;;;;;;;52.53;32.35;;;8.80;99.90;;;;;;5017428;28;20056;-85
2023/04/23 00:31:43;;;;;;;48.15;30.35;;;8.70;99.90;;;;;;5019949;28;20482;-85
2023/04/23 00:34:11;;;;;;;46.25;29.67;;;8.70;99.90;;;;;;5018462;28;20030;-84
2023/04/23 00:36:38;;;;;;;55.58;34.97;;;8.70;99.90;;;;;;5020492;28;20083;-85
2023/04/23 00:39:06;;;;;;;53.83;32.78;;;8.70;99.90;;;;;;5013803;28;20044;-85
2023/04/23 00:41:33;;;;;;;53.53;34.63;;;8.60;99.90;;;;;;5011422;28;20084;-86
2023/04/23 00:43:59;;;;;;;54.88;33.38;;;8.60;99.90;;;;;;5020060;28;20189;-85
2023/04/23 00:46:25;;;;;;;51.97;31.05;;;8.60;99.90;;;;;;5020230;28;20172;-85
2023/04/23 00:48:52;;;;;;;47.92;30.33;;;8.60;99.90;;;;;;5020756;28;20109;-89
2023/04/23 00:51:29;;;;;;;46.97;29.92;;;8.50;99.90;;;;;;5023042;28;20029;-88
2023/04/23 00:53:55;;;;;;;46.60;28.67;;;8.50;99.90;;;;;;5029064;28;20029;-88
2023/04/23 00:56:24;;;;;;;46.30;29.00;;;8.40;99.90;;;;;;5023198;28;20033;-87
2023/04/23 00:58:55;;;;;;;48.42;29.77;;;8.40;99.90;;;;;;5028478;28;20100;-88
2023/04/23 01:01:21;;;;;;;47.08;29.23;;;8.40;99.90;;;;;;5022676;28;20048;-87
2023/04/23 01:03:52;;;;;;;42.72;27.38;;;8.40;99.90;;;;;;5023957;28;20465;-87
2023/04/23 01:06:18;;;;;;;42.35;26.77;;;8.40;99.90;;;;;;5027615;28;20033;-87
2023/04/23 01:08:46;;;;;;;46.85;27.30;;;8.30;99.90;;;;;;5022784;28;20060;-89
2023/04/23 01:11:19;;;;;;;45.28;27.83;;;8.30;99.90;;;;;;5020067;28;20041;-88
2023/04/23 01:13:50;;;;;;;40.67;26.83;;;8.20;99.90;;;;;;5024032;28;20049;-88
2023/04/23 01:16:16;;;;;;;44.05;26.73;;;8.20;99.90;;;;;;5027341;28;20184;-88
2023/04/23 01:18:42;;;;;;;41.05;25.88;;;8.20;99.90;;;;;;5028839;28;20096;-88
2023/04/23 01:21:10;;;;;;;39.80;25.05;;;8.20;99.90;;;;;;5026693;28;20108;-88
2023/04/23 01:23:36;;;;;;;45.03;27.67;;;8.20;99.90;;;;;;5026216;28;20025;-88
2023/04/23 01:26:03;;;;;;;44.00;27.60;;;8.30;99.90;;;;;;5025406;28;20037;-88
2023/04/23 01:28:29;;;;;;;47.33;28.20;;;8.30;99.90;;;;;;5030007;28;20048;-88
2023/04/23 01:30:55;;;;;;;47.78;29.67;;;8.40;99.90;;;;;;5026919;28;20026;-88
2023/04/23 01:33:21;;;;;;;46.55;28.45;;;8.40;99.90;;;;;;5024690;28;20449;-88
2023/04/23 01:35:48;;;;;;;46.72;28.20;;;8.50;99.90;;;;;;5024610;28;20036;-88
2023/04/23 01:38:16;;;;;;;46.28;27.73;;;8.60;99.90;;;;;;5019402;28;20366;-88
2023/04/23 01:40:42;;;;;;;47.70;27.77;;;8.60;99.90;;;;;;5025913;28;20025;-87
2023/04/23 01:43:07;;;;;;;47.00;28.52;;;8.60;99.90;;;;;;5026430;28;20044;-88
2023/04/23 01:45:37;;;;;;;45.10;27.83;;;8.50;99.90;;;;;;5028544;28;20445;-88
2023/04/23 01:48:05;;;;;;;44.17;26.92;;;8.50;99.90;;;;;;5025811;28;20029;-88
2023/04/23 01:50:33;;;;;;;45.95;28.17;;;8.50;99.90;;;;;;5023087;28;20033;-88
2023/04/23 01:53:04;;;;;;;45.20;26.75;;;8.50;99.90;;;;;;5026976;28;20495;-88
2023/04/23 01:55:36;;;;;;;44.22;27.67;;;8.40;99.90;;;;;;5012809;28;20029;-88
2023/04/23 01:58:04;;;;;;;43.80;26.48;;;8.40;99.90;;;;;;5030232;28;20061;-88
2023/04/23 02:00:30;;;;;;;39.60;24.88;;;8.30;99.90;;;;;;5023079;28;20038;-88
2023/04/23 02:02:56;;;;;;;43.22;27.10;;;8.30;99.90;;;;;;5019046;28;20032;-88
2023/04/23 02:05:24;;;;;;;41.13;25.85;;;8.30;99.90;;;;;;5024401;28;20999;-88
2023/04/23 02:07:51;;;;;;;43.20;25.73;;;8.30;99.90;;;;;;5024023;28;20064;-88
2023/04/23 02:10:18;;;;;;;44.20;28.23;;;8.30;99.90;;;;;;5024786;28;20413;-90
2023/04/23 02:12:44;;;;;;;43.30;26.13;;;8.30;99.90;;;;;;5022508;28;20030;-88
2023/04/23 02:15:18;;;;;;;44.15;25.42;;;8.30;99.90;;;;;;5026607;28;20018;-88
2023/04/23 02:17:44;;;;;;;41.40;25.33;;;8.40;99.90;;;;;;5031090;28;20467;-88
2023/04/23 02:20:10;;;;;;;41.38;26.88;;;8.40;99.90;;;;;;5027203;28;20022;-88
2023/04/23 02:22:40;;;;;;;48.13;27.90;;;8.40;99.90;;;;;;5029457;28;21030;-88
2023/04/23 02:25:07;;;;;;;41.22;25.65;;;8.40;99.90;;;;;;5025258;28;20469;-88
2023/04/23 02:27:34;;;;;;;42.65;26.65;;;8.40;99.90;;;;;;5027408;28;20551;-88
2023/04/23 02:30:00;;;;;;;44.00;25.67;;;8.50;99.90;;;;;;5003241;28;20112;-88
2023/04/23 02:32:26;;;;;;;42.85;26.48;;;8.50;99.90;;;;;;5028682;28;20022;-88
2023/04/23 02:34:52;;;;;;;44.45;27.02;;;8.50;99.90;;;;;;5026558;28;20014;-87
2023/04/23 02:37:18;;;;;;;45.03;26.70;;;8.50;99.90;;;;;;5021858;28;20076;-87
2023/04/23 02:39:45;;;;;;;37.80;23.55;;;8.50;99.90;;;;;;5028282;28;22445;-88
2023/04/23 02:42:12;;;;;;;40.97;24.17;;;8.60;99.90;;;;;;5024803;28;20109;-88
2023/04/23 02:44:37;;;;;;;39.70;23.75;;;8.60;99.90;;;;;;5030730;28;20477;-88
2023/04/23 02:47:05;;;;;;;38.03;23.63;;;8.60;99.90;;;;;;5031681;28;20042;-87
2023/04/23 02:49:31;;;;;;;39.67;24.63;;;8.60;99.90;;;;;;5017041;28;20037;-87
2023/04/23 02:51:58;;;;;;;39.33;25.08;;;8.60;99.90;;;;;;5015022;28;20474;-88
2023/04/23 02:54:24;;;;;;;40.25;24.98;;;8.50;99.90;;;;;;5033049;28;20026;-88
2023/04/23 02:56:50;;;;;;;41.25;25.63;;;8.50;99.90;;;;;;5007107;28;20381;-88
2023/04/23 02:59:20;;;;;;;43.88;26.00;;;8.50;99.90;;;;;;5026277;28;20030;-89
2023/04/23 03:01:47;;;;;;;48.75;28.23;;;8.60;99.90;;;;;;5031808;28;20084;-89
2023/04/23 03:04:13;;;;;;;43.17;26.30;;;8.50;99.90;;;;;;5026917;28;20022;-88
2023/04/23 03:06:52;;;;;;;41.20;25.30;;;8.50;99.90;;;;;;5030912;28;20104;-88
2023/04/23 03:09:18;;;;;;;40.53;24.70;;;8.40;99.90;;;;;;5023660;28;20029;-88
2023/04/23 03:11:44;;;;;;;37.72;24.15;;;8.40;99.90;;;;;;5028141;28;20096;-87
2023/04/23 03:14:13;;;;;;;40.78;25.42;;;8.30;99.90;;;;;;5030605;28;20021;-88
2023/04/23 03:16:38;;;;;;;36.70;22.95;;;8.30;99.90;;;;;;5027405;28;20548;-88
2023/04/23 03:19:04;;;;;;;40.55;25.38;;;8.30;99.90;;;;;;5030503;28;20033;-88
2023/04/23 03:21:32;;;;;;;41.35;24.90;;;8.20;99.90;;;;;;5029611;28;20505;-88
2023/04/23 03:23:58;;;;;;;40.10;23.88;;;8.20;99.90;;;;;;5025510;28;20022;-87
2023/04/23 03:26:25;;;;;;;41.42;25.30;;;8.20;99.90;;;;;;5025193;28;20041;-87
2023/04/23 03:28:51;;;;;;;38.05;23.50;;;8.10;99.90;;;;;;4971977;28;1483617;-87
2023/04/23 03:31:17;;;;;;;36.75;23.38;;;8.10;99.90;;;;;;5027391;28;20060;-88
2023/04/23 03:33:43;;;;;;;37.90;24.02;;;8.10;99.90;;;;;;5028986;28;20112;-88
2023/04/23 03:36:09;;;;;;;40.58;24.42;;;8.10;99.90;;;;;;5031400;28;20045;-88
2023/04/23 03:38:35;;;;;;;40.90;24.75;;;8.10;99.90;;;;;;5035314;28;20063;-88
2023/04/23 03:41:07;;;;;;;37.50;23.60;;;8.20;99.90;;;;;;5023546;28;20026;-88
2023/04/23 03:43:33;;;;;;;36.65;23.45;;;8.20;99.90;;;;;;5031894;28;20018;-88
2023/04/23 03:45:59;;;;;;;34.97;21.02;;;8.20;99.90;;;;;;5028475;28;20125;-88
2023/04/23 03:48:25;;;;;;;31.70;20.48;;;8.20;99.90;;;;;;5029589;28;20377;-88
2023/04/23 03:50:51;;;;;;;33.08;20.25;;;8.20;99.90;;;;;;5020015;28;20493;-87
2023/04/23 03:53:16;;;;;;;33.20;19.98;;;8.20;99.90;;;;;;5029293;28;20026;-89
2023/04/23 03:55:43;;;;;;;32.65;20.38;;;8.20;99.90;;;;;;4993849;28;20034;-88
2023/04/23 03:58:08;;;;;;;32.47;20.00;;;8.20;99.90;;;;;;5018737;28;20022;-89
2023/04/23 04:00:35;;;;;;;32.00;20.10;;;8.20;99.90;;;;;;5022023;28;20508;-88
2023/04/23 04:03:01;;;;;;;30.83;20.42;;;8.20;99.90;;;;;;5024840;28;20030;-88
2023/04/23 04:05:27;;;;;;;30.63;19.77;;;8.20;99.90;;;;;;5026786;28;20022;-88
2023/04/23 04:07:57;;;;;;;33.10;19.65;;;8.20;99.90;;;;;;5030239;28;20034;-88
2023/04/23 04:10:22;;;;;;;29.15;18.20;;;8.20;99.90;;;;;;5028394;28;20104;-87
2023/04/23 04:12:48;;;;;;;30.58;19.13;;;8.20;99.90;;;;;;5030000;28;20518;-88
2023/04/23 04:15:16;;;;;;;31.30;19.30;;;8.20;99.90;;;;;;5025599;28;20128;-88
2023/04/23 04:17:50;;;;;;;29.83;18.83;;;8.20;99.90;;;;;;5028621;28;20022;-87
2023/04/23 04:20:16;;;;;;;31.27;19.35;;;8.20;99.90;;;;;;5030610;28;20045;-88
2023/04/23 04:22:43;;;;;;;33.92;20.45;;;8.20;99.90;;;;;;5026129;28;20480;-87
2023/04/23 04:25:09;;;;;;;31.77;19.60;;;8.30;99.90;;;;;;5026306;28;20140;-88
2023/04/23 04:27:35;;;;;;;28.10;18.20;;;8.30;99.90;;;;;;5026743;28;20069;-89
2023/04/23 04:30:01;;;;;;;30.17;18.85;;;8.30;99.90;;;;;;5028553;28;20053;-88
2023/04/23 04:32:29;;;;;;;30.15;19.23;;;8.30;99.90;;;;;;5027083;28;20025;-88
2023/04/23 04:34:55;;;;;;;31.23;19.52;;;8.20;99.90;;;;;;5026764;28;20107;-88
2023/04/23 04:37:24;;;;;;;29.88;18.95;;;8.20;99.90;;;;;;5032406;28;20029;-88
2023/04/23 04:39:50;;;;;;;29.38;19.17;;;8.10;99.90;;;;;;5025963;28;20478;-87
2023/04/23 04:42:16;;;;;;;30.48;19.10;;;8.10;99.90;;;;;;5026411;28;20049;-89
2023/04/23 04:44:42;;;;;;;27.30;18.50;;;8.20;99.90;;;;;;5027922;28;20022;-88
2023/04/23 04:47:08;;;;;;;30.73;18.10;;;8.20;99.90;;;;;;5028352;28;20034;-88
2023/04/23 04:49:35;;;;;;;29.52;18.90;;;8.30;99.90;;;;;;5022979;28;20017;-88
2023/04/23 04:52:05;;;;;;;33.03;20.52;;;8.40;99.90;;;;;;5030335;28;20026;-89
2023/04/23 04:54:30;;;;;;;31.42;19.75;;;8.40;99.90;;;;;;5029449;28;20463;-88
2023/04/23 04:56:58;;;;;;;30.17;19.65;;;8.50;99.90;;;;;;5029415;28;20040;-88
2023/04/23 04:59:24;;;;;;;30.80;19.27;;;8.50;99.90;;;;;;5026358;28;20108;-88
2023/04/23 05:01:50;;;;;;;29.48;18.80;;;8.60;99.90;;;;;;5023514;28;20562;-88
2023/04/23 05:04:20;;;;;;;27.60;18.10;;;8.60;99.90;;;;;;5028696;28;20060;-89
2023/04/23 05:06:51;;;;;;;28.80;18.10;;;8.70;99.90;;;;;;5027539;28;20095;-88
2023/04/23 05:09:18;;;;;;;29.10;17.67;;;8.70;99.90;;;;;;5023339;28;22460;-89
2023/04/23 05:11:47;;;;;;;30.23;18.20;;;8.80;99.90;;;;;;5021896;28;20033;-88
2023/04/23 05:14:18;;;;;;;27.23;17.90;;;8.80;99.90;;;;;;5028839;28;20444;-88
2023/04/23 05:16:44;;;;;;;28.50;16.65;;;8.80;99.90;;;;;;5026725;28;20079;-88
2023/04/23 05:19:10;;;;;;;27.90;16.95;;;8.90;99.90;;;;;;5023704;28;20017;-87
2023/04/23 05:21:36;;;;;;;30.20;18.75;;;8.90;99.90;;;;;;5029854;28;20025;-88
2023/04/23 05:24:04;;;;;;;30.50;17.05;;;8.90;99.90;;;;;;5012537;28;20126;-88
2023/04/23 05:26:32;;;;;;;27.15;16.85;;;9.00;99.90;;;;;;5027119;28;20034;-88
2023/04/23 05:28:59;;;;;;;27.23;17.88;;;9.00;99.90;;;;;;5026501;28;20050;-88
2023/04/23 05:31:26;;;;;;;26.40;16.52;;;9.00;99.90;;;;;;5026116;28;20105;-88
2023/04/23 05:33:53;;;;;;;26.80;15.93;;;9.00;99.90;;;;;;5030747;28;20037;-89
2023/04/23 05:36:18;;;;;;;24.77;15.32;;;9.00;99.90;;;;;;5026744;28;20064;-88
2023/04/23 05:38:44;;;;;;;24.40;15.82;;;9.10;99.90;;;;;;5027327;28;20041;-88
2023/04/23 05:41:10;;;;;;;22.73;15.18;;;9.10;99.90;;;;;;5029504;28;20492;-87
2023/04/23 05:43:36;;;;;;;24.25;15.10;;;9.10;99.90;;;;;;5025133;28;20034;-88
2023/04/23 05:46:05;;;;;;;22.60;15.10;;;9.20;99.90;;;;;;5025538;28;20094;-88
2023/04/23 05:48:30;;;;;;;24.17;16.38;;;9.20;99.90;;;;;;5025527;28;20101;-87
2023/04/23 05:51:03;;;;;;;25.23;16.83;;;9.30;99.90;;;;;;5026852;28;20112;-88
2023/04/23 05:53:30;;;;;;;23.20;15.73;;;9.40;99.90;;;;;;5024851;28;22462;-88
2023/04/23 05:55:58;;;;;;;20.13;13.77;;;9.50;99.90;;;;;;5027550;28;20482;-88
2023/04/23 05:58:23;;;;;;;19.40;14.07;;;9.50;99.90;;;;;;5022974;28;20514;-88
2023/04/23 06:01:12;;;;;;;19.58;14.13;;;9.50;99.90;;;;;;5026790;28;20109;-88
2023/04/23 06:03:43;;;;;;;18.33;13.27;;;9.50;99.90;;;;;;5027516;28;20045;-88
2023/04/23 06:06:12;;;;;;;20.83;15.27;;;9.40;99.90;;;;;;5022746;28;20119;-88
2023/04/23 06:08:41;;;;;;;19.33;14.73;;;9.40;99.90;;;;;;5027107;28;20454;-88
2023/04/23 06:11:13;;;;;;;20.75;15.65;;;9.40;99.90;;;;;;5036327;28;20029;-88
2023/04/23 06:13:44;;;;;;;18.77;14.75;;;9.40;99.90;;;;;;5019844;28;20099;-89
2023/04/23 06:16:13;;;;;;;22.80;17.27;;;9.40;99.90;;;;;;5028027;28;20045;-89
2023/04/23 06:18:39;;;;;;;20.55;15.77;;;9.50;99.90;;;;;;5021102;28;20026;-88
2023/04/23 06:21:07;;;;;;;20.38;15.98;;;9.50;99.90;;;;;;5030277;28;20096;-88
2023/04/23 06:24:07;;;;;;;18.83;15.35;;;9.60;99.90;;;;;;5031630;28;20026;-88
2023/04/23 06:26:33;;;;;;;22.83;17.08;;;9.70;99.90;;;;;;5010225;28;20033;-88
2023/04/23 06:29:02;;;;;;;22.05;15.73;;;9.70;99.90;;;;;;5032451;28;20049;-88
2023/04/23 06:31:29;;;;;;;24.70;17.48;;;9.80;99.90;;;;;;5029371;28;20028;-88
2023/04/23 06:33:55;;;;;;;20.52;16.92;;;9.90;99.90;;;;;;5031479;28;20033;-88
2023/04/23 06:36:22;;;;;;;21.08;16.85;;;9.90;99.90;;;;;;5025856;28;20453;-88
2023/04/23 06:38:51;;;;;;;21.42;16.85;;;10.00;99.90;;;;;;5025974;28;20053;-88
2023/04/23 06:41:20;;;;;;;21.30;16.08;;;10.10;99.90;;;;;;5027533;28;20021;-88
2023/04/23 06:43:49;;;;;;;19.15;14.55;;;10.20;99.90;;;;;;5023488;28;20489;-86
2023/04/23 06:46:15;;;;;;;18.52;14.63;;;10.20;99.90;;;;;;5023477;28;20037;-87
2023/04/23 06:48:40;;;;;;;18.83;15.65;;;10.30;99.90;;;;;;5027450;28;20532;-86
2023/04/23 06:51:06;;;;;;;18.70;13.98;;;10.30;99.90;;;;;;5027151;28;20547;-87
2023/04/23 06:53:33;;;;;;;25.52;19.38;;;10.30;99.90;;;;;;5019398;28;20434;-84
2023/04/23 06:56:01;;;;;;;23.92;19.17;;;10.40;99.90;;;;;;5018844;28;20065;-83
2023/04/23 06:58:30;;;;;;;25.63;19.27;;;10.50;99.90;;;;;;5021547;28;20378;-84
2023/04/23 07:01:03;;;;;;;20.83;17.45;;;10.60;99.90;;;;;;5018226;28;20033;-84
2023/04/23 07:03:30;;;;;;;19.95;16.92;;;10.60;99.90;;;;;;5020167;28;20026;-84
2023/04/23 07:06:00;;;;;;;22.00;17.73;;;10.70;99.90;;;;;;5020286;28;20051;-83
2023/04/23 07:08:26;;;;;;;19.83;15.98;;;10.80;99.90;;;;;;5016220;28;20035;-84
2023/04/23 07:10:53;;;;;;;18.67;15.32;;;10.90;99.90;;;;;;5016644;28;20030;-84
2023/04/23 07:13:19;;;;;;;20.42;16.58;;;10.90;99.90;;;;;;5016146;28;21136;-84
2023/04/23 07:15:47;;;;;;;22.63;16.80;;;11.00;99.90;;;;;;5017746;28;20044;-84
2023/04/23 07:18:15;;;;;;;19.98;16.48;;;11.10;99.90;;;;;;5021753;28;20121;-84
2023/04/23 07:20:45;;;;;;;19.23;15.18;;;11.10;99.90;;;;;;5019204;28;20026;-83
2023/04/23 07:23:11;;;;;;;17.23;14.50;;;11.20;99.90;;;;;;5017620;28;20037;-83
2023/04/23 07:25:36;;;;;;;21.98;17.95;;;11.20;99.90;;;;;;5017669;28;20029;-83
2023/04/23 07:28:03;;;;;;;18.17;15.32;;;11.30;99.90;;;;;;5017910;28;20366;-83
2023/04/23 07:30:29;;;;;;;20.05;16.05;;;11.40;99.90;;;;;;5013851;28;20119;-83
2023/04/23 07:32:55;;;;;;;21.83;17.67;;;11.50;99.90;;;;;;5019982;28;20564;-83
2023/04/23 07:35:22;;;;;;;19.88;16.52;;;11.50;99.90;;;;;;5016506;28;20070;-83
2023/04/23 07:37:52;;;;;;;20.90;16.48;;;11.60;99.90;;;;;;5016840;28;20075;-84
2023/04/23 07:40:21;;;;;;;17.63;15.40;;;11.70;99.90;;;;;;5019790;28;20025;-84
2023/04/23 07:42:49;;;;;;;21.10;15.43;;;11.80;99.90;;;;;;5017136;28;20029;-83
2023/04/23 07:45:15;;;;;;;16.90;15.10;;;11.80;99.90;;;;;;5017332;28;20533;-84
2023/04/23 07:47:41;;;;;;;20.10;16.90;;;11.90;99.90;;;;;;5019540;28;20086;-83
2023/04/23 07:50:07;;;;;;;16.20;13.82;;;11.90;99.90;;;;;;5014188;28;20489;-83
2023/04/23 07:52:33;;;;;;;17.02;12.07;;;12.00;99.90;;;;;;5014662;28;20494;-83
2023/04/23 07:54:59;;;;;;;16.08;13.82;;;12.10;99.90;;;;;;5020317;28;20036;-84
2023/04/23 07:57:24;;;;;;;13.35;11.10;;;12.10;99.90;;;;;;5014121;28;20065;-83
2023/04/23 07:59:50;;;;;;;16.27;12.93;;;12.20;99.90;;;;;;5015525;28;20691;-84
2023/04/23 08:02:22;;;;;;;15.75;12.50;;;12.30;99.90;;;;;;5012857;28;20033;-84
2023/04/23 08:04:48;;;;;;;12.73;10.77;;;12.40;99.90;;;;;;5017220;28;20382;-84
2023/04/23 08:07:14;;;;;;;12.32;10.00;;;12.50;99.90;;;;;;5016848;28;20788;-83
2023/04/23 08:09:40;;;;;;;13.02;10.85;;;12.50;99.90;;;;;;5016457;28;20029;-83
2023/04/23 08:12:07;;;;;;;13.45;8.77;;;12.60;99.90;;;;;;5016697;28;20479;-82
2023/04/23 08:14:33;;;;;;;11.68;10.27;;;12.70;99.90;;;;;;5018819;28;20138;-84
2023/04/23 08:16:58;;;;;;;13.68;10.52;;;12.80;99.90;;;;;;5013549;28;20121;-82
2023/04/23 08:19:25;;;;;;;15.10;10.68;;;12.80;99.90;;;;;;5019346;28;20390;-84
2023/04/23 08:21:51;;;;;;;13.73;10.73;;;12.90;99.90;;;;;;5019101;28;20033;-83
2023/04/23 08:24:17;;;;;;;13.00;11.27;;;12.90;99.90;;;;;;5019663;28;20025;-83
2023/04/23 08:26:45;;;;;;;12.98;10.05;;;13.00;99.90;;;;;;5014761;28;20041;-84
2023/04/23 08:29:11;;;;;;;10.82;8.32;;;13.10;99.90;;;;;;5015857;28;20053;-84
2023/04/23 08:31:38;;;;;;;10.05;8.10;;;13.10;99.90;;;;;;5013856;28;20033;-84
2023/04/23 08:34:03;;;;;;;9.63;8.13;;;13.20;99.90;;;;;;5020384;28;20035;-83
2023/04/23 08:36:31;;;;;;;14.55;9.43;;;13.20;99.90;;;;;;5016548;28;20045;-83
2023/04/23 08:38:58;;;;;;;10.40;8.13;;;13.30;99.90;;;;;;5014925;28;20124;-83
2023/04/23 08:41:30;;;;;;;13.73;9.32;;;13.40;99.90;;;;;;5013912;28;20037;-82
2023/04/23 08:44:24;;;;;;;10.50;8.45;;;13.50;99.90;;;;;;5030012;28;20032;-84
2023/04/23 08:46:53;;;;;;;12.38;9.90;;;13.60;99.90;;;;;;5014799;28;20397;-83
2023/04/23 08:49:19;;;;;;;11.45;8.02;;;13.70;99.90;;;;;;5013341;28;20394;-83
2023/04/23 08:52:09;;;;;;;11.63;8.45;;;13.70;99.90;;;;;;5016173;28;20029;-84
2023/04/23 08:54:36;;;;;;;11.10;7.25;;;13.70;99.90;;;;;;5030084;28;20218;-83
2023/04/23 08:57:02;;;;;;;14.95;7.38;;;13.80;99.90;;;;;;5018730;28;20096;-84
2023/04/23 08:59:30;;;;;;;7.97;6.20;;;13.90;99.90;;;;;;5030038;28;20029;-84
2023/04/23 09:02:00;;;;;;;9.63;6.70;;;14.00;99.90;;;;;;5018300;28;20581;-84
2023/04/23 09:04:27;;;;;;;9.73;7.03;;;14.10;99.90;;;;;;5017090;28;20524;-84
2023/04/23 09:06:55;;;;;;;10.05;6.10;;;14.20;99.90;;;;;;5019296;28;20120;-83
2023/04/23 09:09:22;;;;;;;8.90;5.68;;;14.30;99.90;;;;;;5029320;28;20037;-84
2023/04/23 09:11:48;;;;;;;6.97;4.97;;;14.40;99.90;;;;;;5014817;28;20068;-84
2023/04/23 09:14:17;;;;;;;10.68;6.85;;;14.50;99.90;;;;;;5014482;28;20033;-84
2023/04/23 09:16:44;;;;;;;9.05;5.78;;;14.70;99.90;;;;;;5012406;28;20486;-85
2023/04/23 09:19:10;;;;;;;9.18;4.95;;;14.80;99.90;;;;;;5015964;28;20034;-85
2023/04/23 09:21:38;;;;;;;11.68;5.30;;;14.80;99.90;;;;;;5015095;28;20029;-85
2023/04/23 09:24:13;;;;;;;7.25;4.60;;;14.90;99.90;;;;;;5012706;28;20467;-85
2023/04/23 09:26:49;;;;;;;7.80;4.07;;;15.00;99.90;;;;;;5028487;28;20037;-85
2023/04/23 09:29:22;;;;;;;8.32;4.93;;;15.10;99.90;;;;;;5006656;28;20049;-85
2023/04/23 09:31:50;;;;;;;7.53;4.10;;;15.30;99.90;;;;;;5013743;28;20565;-83
2023/04/23 09:34:17;;;;;;;8.48;4.05;;;15.50;99.90;;;;;;5013570;28;20037;-86
2023/04/23 09:36:44;;;;;;;7.28;3.75;;;15.80;99.90;;;;;;5014336;28;20029;-83
2023/04/23 09:39:22;;;;;;;6.75;3.30;;;16.40;99.90;;;;;;5013807;28;20026;-84
2023/04/23 09:41:50;;;;;;;7.25;3.63;;;17.30;99.90;;;;;;5013181;28;20025;-85
2023/04/23 09:44:25;;;;;;;8.15;3.30;;;18.00;99.90;;;;;;5013938;28;20059;-84
2023/04/23 09:46:52;;;;;;;8.30;2.95;;;18.70;99.90;;;;;;5010488;28;20128;-85
2023/04/23 09:49:18;;;;;;;7.05;2.97;;;19.40;99.90;;;;;;5015786;28;20054;-85
2023/04/23 09:51:48;;;;;;;7.57;2.42;;;19.70;99.90;;;;;;5015036;28;20705;-87
2023/04/23 09:54:22;;;;;;;8.80;2.20;;;19.90;99.90;;;;;;5015700;28;20025;-84
2023/04/23 09:56:55;;;;;;;5.38;2.13;;;20.10;99.90;;;;;;5016299;28;20044;-84
2023/04/23 09:59:26;;;;;;;7.03;2.03;;;20.20;99.90;;;;;;5018244;28;20033;-86
2023/04/23 10:01:53;;;;;;;5.60;1.80;;;20.50;99.90;;;;;;5022140;28;20022;-85
2023/04/23 10:04:24;;;;;;;5.50;2.05;;;20.40;99.90;;;;;;5024075;28;20029;-84
2023/04/23 10:07:16;;;;;;;5.10;1.77;;;20.30;99.90;;;;;;5034892;28;20086;-86
2023/04/23 10:09:42;;;;;;;6.07;1.80;;;20.30;99.90;;;;;;5014781;28;20558;-86
2023/04/23 10:12:09;;;;;;;5.38;1.35;;;20.30;99.90;;;;;;5016521;28;20044;-84
2023/04/23 10:14:37;;;;;;;5.28;1.60;;;20.50;99.90;;;;;;5016914;28;20024;-86
2023/04/23 10:17:04;;;;;;;5.70;1.60;;;21.00;99.90;;;;;;5016695;28;20038;-84
2023/04/23 10:19:31;;;;;;;5.60;1.50;;;21.30;99.90;;;;;;5017338;28;20068;-84
2023/04/23 10:22:06;;;;;;;6.05;1.40;;;21.50;99.90;;;;;;5018372;28;20035;-85
2023/04/23 10:24:33;;;;;;;5.03;1.73;;;21.60;99.90;;;;;;5018238;28;20104;-84
2023/04/23 10:27:03;;;;;;;4.43;1.30;;;21.80;99.90;;;;;;5021908;28;20221;-85
2023/04/23 10:29:34;;;;;;;6.07;1.63;;;22.00;99.90;;;;;;5017591;28;20138;-85
2023/04/23 10:32:02;;;;;;;4.25;1.42;;;22.20;99.90;;;;;;5014826;28;20025;-85
2023/04/23 10:34:30;;;;;;;6.38;1.33;;;22.50;99.90;;;;;;5021001;28;20541;-86
2023/04/23 10:36:58;;;;;;;5.28;1.17;;;22.50;99.90;;;;;;5016074;28;20132;-89
2023/04/23 10:39:27;;;;;;;7.38;1.60;;;22.00;99.90;;;;;;5019810;28;20099;-84
2023/04/23 10:41:54;;;;;;;5.22;1.27;;;21.20;99.90;;;;;;5016778;28;20477;-85
2023/04/23 10:44:20;;;;;;;3.45;1.00;;;20.60;99.90;;;;;;5015756;28;20034;-84
2023/04/23 10:46:52;;;;;;;5.00;1.20;;;20.70;99.90;;;;;;5017131;28;20045;-84
2023/04/23 10:49:17;;;;;;;5.45;1.35;;;20.90;99.90;;;;;;5015542;28;20029;-85
2023/04/23 10:51:46;;;;;;;5.43;1.35;;;20.60;99.90;;;;;;5015372;28;20100;-85
2023/04/23 10:54:18;;;;;;;4.97;1.13;;;20.40;99.90;;;;;;5018518;28;20028;-84
2023/04/23 10:56:43;;;;;;;3.47;0.90;;;20.20;99.90;;;;;;5016239;28;20041;-85
2023/04/23 10:59:20;;;;;;;3.10;1.10;;;20.00;99.90;;;;;;5015296;28;20410;-85
2023/04/23 11:01:47;;;;;;;3.78;1.10;;;20.00;99.90;;;;;;5015431;28;20029;-86
2023/04/23 11:04:21;;;;;;;4.65;1.10;;;20.40;99.90;;;;;;5015282;28;20040;-86
2023/04/23 11:06:48;;;;;;;4.03;1.00;;;20.90;99.90;;;;;;5015784;28;20038;-85
2023/04/23 11:09:38;;;;;;;7.53;1.23;;;21.20;99.90;;;;;;5020994;28;20029;-89
2023/04/23 11:12:13;;;;;;;4.10;1.13;;;21.70;99.90;;;;;;5031631;28;20029;-85
2023/04/23 11:14:48;;;;;;;4.03;0.90;;;21.70;99.90;;;;;;5016685;28;20034;-85
2023/04/23 11:17:22;;;;;;;5.65;1.17;;;21.40;99.90;;;;;;5017466;28;20401;-84
2023/04/23 11:20:02;;;;;;;4.53;1.20;;;21.40;99.90;;;;;;5016175;28;20064;-86
2023/04/23 11:22:39;;;;;;;2.38;1.00;;;21.50;99.90;;;;;;5013748;28;20191;-86
2023/04/23 11:25:10;;;;;;;2.97;0.90;;;21.60;99.90;;;;;;5016160;28;20049;-84
2023/04/23 11:27:43;;;;;;;5.40;1.27;;;21.40;99.90;;;;;;5016055;28;20107;-84
2023/04/23 11:30:24;;;;;;;4.78;1.08;;;20.90;99.90;;;;;;5017086;28;20052;-87
2023/04/23 11:32:53;;;;;;;4.78;1.00;;;20.50;99.90;;;;;;5017955;28;20032;-86
2023/04/23 11:35:27;;;;;;;4.63;1.10;;;20.10;99.90;;;;;;5016497;28;20041;-87
2023/04/23 11:37:56;;;;;;;3.47;1.02;;;19.70;99.90;;;;;;5019086;28;20029;-87
2023/04/23 11:40:29;;;;;;;4.45;1.20;;;19.60;99.90;;;;;;5016870;28;20109;-85
2023/04/23 11:43:03;;;;;;;3.40;1.08;;;19.60;99.90;;;;;;5016507;28;20576;-83
2023/04/23 11:45:29;;;;;;;4.32;1.00;;;19.80;99.90;;;;;;5019688;28;20040;-83
2023/04/23 11:47:59;;;;;;;3.85;1.10;;;19.90;99.90;;;;;;5014754;28;20371;-83
2023/04/23 11:50:37;;;;;;;3.97;1.08;;;20.10;99.90;;;;;;5014289;28;20175;-84
2023/04/23 11:53:14;;;;;;;2.65;0.90;;;20.20;99.90;;;;;;5017320;28;20119;-83
2023/04/23 11:55:42;;;;;;;4.40;1.00;;;20.50;99.90;;;;;;5019929;28;20037;-82
2023/04/23 11:58:10;;;;;;;3.33;0.98;;;20.50;99.90;;;;;;5012890;28;20037;-84
2023/04/23 12:00:36;;;;;;;3.70;1.05;;;20.70;99.90;;;;;;5003853;28;20036;-83
2023/04/23 12:03:04;;;;;;;3.65;0.82;;;20.80;99.90;;;;;;5015115;28;20037;-84
2023/04/23 12:05:38;;;;;;;5.57;1.17;;;20.50;99.90;;;;;;5015553;28;20031;-84
2023/04/23 12:08:20;;;;;;;4.25;0.98;;;20.30;99.90;;;;;;5015460;28;20034;-83
2023/04/23 12:10:59;;;;;;;3.83;1.20;;;20.20;99.90;;;;;;5011626;28;20518;-82
2023/04/23 12:13:30;;;;;;;2.97;0.82;;;20.10;99.90;;;;;;5014325;28;20039;-84
2023/04/23 12:16:03;;;;;;;5.75;1.10;;;19.90;99.90;;;;;;5002471;28;20036;-83
2023/04/23 12:18:38;;;;;;;4.57;1.20;;;19.80;99.90;;;;;;5012490;28;20040;-83
2023/04/23 12:21:09;;;;;;;4.10;1.00;;;19.60;99.90;;;;;;5018287;28;20071;-83
2023/04/23 12:23:36;;;;;;;4.00;1.05;;;19.50;99.90;;;;;;5016432;28;20047;-83
2023/04/23 12:26:03;;;;;;;3.65;0.93;;;19.50;99.90;;;;;;5014709;28;20046;-82
2023/04/23 12:28:32;;;;;;;3.60;0.90;;;19.50;99.90;;;;;;5012798;28;20462;-83
2023/04/23 12:31:03;;;;;;;2.83;1.13;;;19.50;99.90;;;;;;5011429;28;20069;-83
2023/04/23 12:33:30;;;;;;;3.30;1.15;;;19.50;99.90;;;;;;5015301;28;20022;-83
2023/04/23 12:35:56;;;;;;;4.10;1.48;;;19.40;99.90;;;;;;5017123;28;20055;-83
2023/04/23 12:38:29;;;;;;;2.60;1.00;;;19.30;99.90;;;;;;5015659;28;20694;-82
2023/04/23 12:41:04;;;;;;;5.20;1.20;;;19.20;99.90;;;;;;5009580;28;20045;-82
2023/04/23 12:43:33;;;;;;;4.85;1.00;;;19.30;99.90;;;;;;5016680;28;20072;-83
2023/04/23 12:46:03;;;;;;;4.75;0.90;;;19.30;99.90;;;;;;5012732;28;20045;-83